Terminal Aerodrome Forecast
Issued by NWS Shreveport, LA

Current Version | Previous Version | Text Only | Print | Product List | Glossary On
Versions: 1 2 3 4 5 6 7 8 9 10 11 12 13
000
FTUS44 KSHV 181700
TAFMLU
TAF
KMLU 181739Z 1818/1918 11003KT 6SM HZ BKN035
     FM182200 16005KT P6SM VCTS BKN050CB BKN150
     FM190100 VRB03KT P6SM SCT150 BKN250
      TEMPO 1909/1913 1SM BR
     FM191500 09004KT 5SM HZ BKN015
     FM191700 05004KT 6SM HZ BKN025=

USA.gov is the U.S. government's official web portal to all federal, state and local government web resources and services.